sensor_id;sensor_type;location;lat;lon;timestamp;P1;durP1;ratioP1;P2;durP2;ratioP2
49834;SDS011;35729;52.090;13.162;2022-10-16T00:01:37;1.95;;;1.65;;
49834;SDS011;35729;52.090;13.162;2022-10-16T00:04:06;2.35;;;1.70;;
49834;SDS011;35729;52.090;13.162;2022-10-16T00:06:39;1.77;;;1.48;;
49834;SDS011;35729;52.090;13.162;2022-10-16T00:09:07;2.72;;;1.85;;
49834;SDS011;35729;52.090;13.162;2022-10-16T00:11:37;2.00;;;1.75;;
49834;SDS011;35729;52.090;13.162;2022-10-16T00:14:07;1.63;;;1.52;;
49834;SDS011;35729;52.090;13.162;2022-10-16T00:16:38;1.75;;;1.60;;
49834;SDS011;35729;52.090;13.162;2022-10-16T00:19:06;4.20;;;2.00;;
49834;SDS011;35729;52.090;13.162;2022-10-16T00:21:35;2.70;;;1.90;;
49834;SDS011;35729;52.090;13.162;2022-10-16T00:24:07;2.50;;;1.58;;
49834;SDS011;35729;52.090;13.162;2022-10-16T00:26:37;2.03;;;1.70;;
49834;SDS011;35729;52.090;13.162;2022-10-16T00:29:07;3.85;;;1.60;;
49834;SDS011;35729;52.090;13.162;2022-10-16T00:31:36;3.15;;;1.70;;
49834;SDS011;35729;52.090;13.162;2022-10-16T00:34:04;1.85;;;1.70;;
49834;SDS011;35729;52.090;13.162;2022-10-16T00:36:33;2.40;;;1.70;;
49834;SDS011;35729;52.090;13.162;2022-10-16T00:39:02;2.08;;;1.88;;
49834;SDS011;35729;52.090;13.162;2022-10-16T00:41:33;3.60;;;1.70;;
49834;SDS011;35729;52.090;13.162;2022-10-16T00:44:02;1.73;;;1.60;;
49834;SDS011;35729;52.090;13.162;2022-10-16T00:46:54;1.70;;;1.60;;
49834;SDS011;35729;52.090;13.162;2022-10-16T00:49:22;3.58;;;1.63;;
49834;SDS011;35729;52.090;13.162;2022-10-16T00:51:51;3.92;;;1.60;;
49834;SDS011;35729;52.090;13.162;2022-10-16T00:54:22;2.38;;;1.75;;
49834;SDS011;35729;52.090;13.162;2022-10-16T00:56:52;3.10;;;1.63;;
49834;SDS011;35729;52.090;13.162;2022-10-16T00:59:24;1.98;;;1.63;;
49834;SDS011;35729;52.090;13.162;2022-10-16T01:01:58;2.92;;;1.60;;
49834;SDS011;35729;52.090;13.162;2022-10-16T01:04:28;1.92;;;1.52;;
49834;SDS011;35729;52.090;13.162;2022-10-16T01:09:35;2.05;;;1.70;;
49834;SDS011;35729;52.090;13.162;2022-10-16T01:12:13;2.13;;;1.75;;
49834;SDS011;35729;52.090;13.162;2022-10-16T01:14:47;2.00;;;1.58;;
49834;SDS011;35729;52.090;13.162;2022-10-16T01:20:07;4.95;;;1.65;;
49834;SDS011;35729;52.090;13.162;2022-10-16T01:22:49;2.85;;;1.60;;
49834;SDS011;35729;52.090;13.162;2022-10-16T01:25:37;1.70;;;1.50;;
49834;SDS011;35729;52.090;13.162;2022-10-16T01:28:20;2.38;;;1.50;;
49834;SDS011;35729;52.090;13.162;2022-10-16T01:30:53;1.88;;;1.65;;
49834;SDS011;35729;52.090;13.162;2022-10-16T01:33:27;2.72;;;1.67;;
49834;SDS011;35729;52.090;13.162;2022-10-16T01:36:03;2.35;;;1.67;;
49834;SDS011;35729;52.090;13.162;2022-10-16T01:38:39;1.65;;;1.50;;
49834;SDS011;35729;52.090;13.162;2022-10-16T01:41:08;1.73;;;1.63;;
49834;SDS011;35729;52.090;13.162;2022-10-16T01:43:43;1.85;;;1.60;;
49834;SDS011;35729;52.090;13.162;2022-10-16T01:46:16;5.88;;;1.75;;
49834;SDS011;35729;52.090;13.162;2022-10-16T01:48:48;1.40;;;1.30;;
49834;SDS011;35729;52.090;13.162;2022-10-16T01:51:18;2.70;;;1.80;;
49834;SDS011;35729;52.090;13.162;2022-10-16T01:53:49;1.75;;;1.63;;
49834;SDS011;35729;52.090;13.162;2022-10-16T01:56:21;1.88;;;1.40;;
49834;SDS011;35729;52.090;13.162;2022-10-16T01:58:55;2.13;;;1.60;;
49834;SDS011;35729;52.090;13.162;2022-10-16T02:01:29;3.80;;;1.70;;
49834;SDS011;35729;52.090;13.162;2022-10-16T02:04:02;2.80;;;1.48;;
49834;SDS011;35729;52.090;13.162;2022-10-16T02:06:35;2.55;;;1.58;;
49834;SDS011;35729;52.090;13.162;2022-10-16T02:09:04;5.13;;;1.70;;
49834;SDS011;35729;52.090;13.162;2022-10-16T02:11:32;2.00;;;1.42;;
49834;SDS011;35729;52.090;13.162;2022-10-16T02:14:05;1.80;;;1.45;;
49834;SDS011;35729;52.090;13.162;2022-10-16T02:16:35;2.83;;;1.60;;
49834;SDS011;35729;52.090;13.162;2022-10-16T02:19:05;1.38;;;1.27;;
49834;SDS011;35729;52.090;13.162;2022-10-16T02:21:36;2.35;;;1.60;;
49834;SDS011;35729;52.090;13.162;2022-10-16T02:24:12;2.35;;;1.65;;
49834;SDS011;35729;52.090;13.162;2022-10-16T02:26:47;2.30;;;1.50;;
49834;SDS011;35729;52.090;13.162;2022-10-16T02:29:24;2.38;;;1.80;;
49834;SDS011;35729;52.090;13.162;2022-10-16T02:31:55;1.63;;;1.40;;
49834;SDS011;35729;52.090;13.162;2022-10-16T02:34:27;1.60;;;1.50;;
49834;SDS011;35729;52.090;13.162;2022-10-16T02:36:59;2.67;;;1.63;;
49834;SDS011;35729;52.090;13.162;2022-10-16T02:39:32;2.30;;;2.05;;
49834;SDS011;35729;52.090;13.162;2022-10-16T02:42:09;1.63;;;1.52;;
49834;SDS011;35729;52.090;13.162;2022-10-16T02:44:46;1.73;;;1.60;;
49834;SDS011;35729;52.090;13.162;2022-10-16T02:47:15;1.85;;;1.40;;
49834;SDS011;35729;52.090;13.162;2022-10-16T02:49:43;2.40;;;1.90;;
49834;SDS011;35729;52.090;13.162;2022-10-16T02:52:12;2.78;;;1.55;;
49834;SDS011;35729;52.090;13.162;2022-10-16T02:54:40;2.10;;;1.50;;
49834;SDS011;35729;52.090;13.162;2022-10-16T02:57:08;1.70;;;1.40;;
49834;SDS011;35729;52.090;13.162;2022-10-16T02:59:37;2.65;;;1.70;;
49834;SDS011;35729;52.090;13.162;2022-10-16T03:02:08;4.75;;;1.98;;
49834;SDS011;35729;52.090;13.162;2022-10-16T03:04:37;1.95;;;1.63;;
49834;SDS011;35729;52.090;13.162;2022-10-16T03:07:05;2.15;;;1.90;;
49834;SDS011;35729;52.090;13.162;2022-10-16T03:09:34;2.00;;;1.60;;
49834;SDS011;35729;52.090;13.162;2022-10-16T03:12:03;2.97;;;1.90;;
49834;SDS011;35729;52.090;13.162;2022-10-16T03:14:31;3.42;;;1.88;;
49834;SDS011;35729;52.090;13.162;2022-10-16T03:17:00;3.20;;;1.70;;
49834;SDS011;35729;52.090;13.162;2022-10-16T03:19:31;6.55;;;4.45;;
49834;SDS011;35729;52.090;13.162;2022-10-16T03:21:59;2.40;;;1.88;;
49834;SDS011;35729;52.090;13.162;2022-10-16T03:24:28;2.58;;;1.92;;
49834;SDS011;35729;52.090;13.162;2022-10-16T03:26:56;2.35;;;1.75;;
49834;SDS011;35729;52.090;13.162;2022-10-16T03:29:25;1.75;;;1.65;;
49834;SDS011;35729;52.090;13.162;2022-10-16T03:31:54;3.42;;;1.90;;
49834;SDS011;35729;52.090;13.162;2022-10-16T03:34:23;1.95;;;1.75;;
49834;SDS011;35729;52.090;13.162;2022-10-16T03:36:54;1.95;;;1.83;;
49834;SDS011;35729;52.090;13.162;2022-10-16T03:39:22;2.45;;;1.60;;
49834;SDS011;35729;52.090;13.162;2022-10-16T03:41:52;2.47;;;2.00;;
49834;SDS011;35729;52.090;13.162;2022-10-16T03:44:20;1.88;;;1.50;;
49834;SDS011;35729;52.090;13.162;2022-10-16T03:46:49;2.47;;;1.98;;
49834;SDS011;35729;52.090;13.162;2022-10-16T03:49:17;4.60;;;2.13;;
49834;SDS011;35729;52.090;13.162;2022-10-16T03:51:46;3.85;;;1.92;;
49834;SDS011;35729;52.090;13.162;2022-10-16T03:54:17;2.88;;;2.17;;
49834;SDS011;35729;52.090;13.162;2022-10-16T03:56:47;2.92;;;1.98;;
49834;SDS011;35729;52.090;13.162;2022-10-16T03:59:15;2.65;;;2.15;;
49834;SDS011;35729;52.090;13.162;2022-10-16T04:01:44;2.38;;;1.98;;
49834;SDS011;35729;52.090;13.162;2022-10-16T04:04:12;3.00;;;1.70;;
49834;SDS011;35729;52.090;13.162;2022-10-16T04:06:41;5.32;;;2.40;;
49834;SDS011;35729;52.090;13.162;2022-10-16T04:09:09;3.47;;;1.67;;
49834;SDS011;35729;52.090;13.162;2022-10-16T04:11:40;3.30;;;2.47;;
49834;SDS011;35729;52.090;13.162;2022-10-16T04:14:09;5.55;;;1.80;;
49834;SDS011;35729;52.090;13.162;2022-10-16T04:16:37;3.28;;;2.08;;
49834;SDS011;35729;52.090;13.162;2022-10-16T04:19:06;2.78;;;1.75;;
49834;SDS011;35729;52.090;13.162;2022-10-16T04:21:34;2.17;;;1.80;;
49834;SDS011;35729;52.090;13.162;2022-10-16T04:24:03;2.13;;;1.92;;
49834;SDS011;35729;52.090;13.162;2022-10-16T04:26:31;2.00;;;1.85;;
49834;SDS011;35729;52.090;13.162;2022-10-16T04:29:03;2.20;;;2.00;;
49834;SDS011;35729;52.090;13.162;2022-10-16T04:31:32;4.95;;;2.22;;
49834;SDS011;35729;52.090;13.162;2022-10-16T04:34:00;3.45;;;2.25;;
49834;SDS011;35729;52.090;13.162;2022-10-16T04:36:29;1.70;;;1.60;;
49834;SDS011;35729;52.090;13.162;2022-10-16T04:38:57;2.92;;;1.80;;
49834;SDS011;35729;52.090;13.162;2022-10-16T04:41:26;3.03;;;1.67;;
49834;SDS011;35729;52.090;13.162;2022-10-16T04:43:55;3.03;;;1.98;;
49834;SDS011;35729;52.090;13.162;2022-10-16T04:46:26;3.97;;;1.92;;
49834;SDS011;35729;52.090;13.162;2022-10-16T04:48:54;2.33;;;1.83;;
49834;SDS011;35729;52.090;13.162;2022-10-16T04:51:23;2.10;;;1.90;;
49834;SDS011;35729;52.090;13.162;2022-10-16T04:53:52;2.95;;;2.47;;
49834;SDS011;35729;52.090;13.162;2022-10-16T04:56:21;7.90;;;2.17;;
49834;SDS011;35729;52.090;13.162;2022-10-16T04:58:49;2.92;;;1.98;;
49834;SDS011;35729;52.090;13.162;2022-10-16T05:01:18;4.22;;;2.00;;
49834;SDS011;35729;52.090;13.162;2022-10-16T05:03:49;3.78;;;2.22;;
49834;SDS011;35729;52.090;13.162;2022-10-16T05:06:17;2.70;;;1.50;;
49834;SDS011;35729;52.090;13.162;2022-10-16T05:08:46;3.85;;;2.00;;
49834;SDS011;35729;52.090;13.162;2022-10-16T05:11:14;1.52;;;1.42;;
49834;SDS011;35729;52.090;13.162;2022-10-16T05:13:43;3.22;;;1.67;;
49834;SDS011;35729;52.090;13.162;2022-10-16T05:16:11;2.80;;;1.65;;
49834;SDS011;35729;52.090;13.162;2022-10-16T05:18:39;4.13;;;1.90;;
49834;SDS011;35729;52.090;13.162;2022-10-16T05:21:10;4.70;;;2.65;;
49834;SDS011;35729;52.090;13.162;2022-10-16T05:23:39;4.95;;;2.42;;
49834;SDS011;35729;52.090;13.162;2022-10-16T05:26:07;3.60;;;2.20;;
49834;SDS011;35729;52.090;13.162;2022-10-16T05:28:36;2.33;;;2.08;;
49834;SDS011;35729;52.090;13.162;2022-10-16T05:31:05;2.83;;;2.03;;
49834;SDS011;35729;52.090;13.162;2022-10-16T05:33:34;3.50;;;2.30;;
49834;SDS011;35729;52.090;13.162;2022-10-16T05:36:04;2.72;;;2.47;;
49834;SDS011;35729;52.090;13.162;2022-10-16T05:38:36;3.72;;;2.50;;
49834;SDS011;35729;52.090;13.162;2022-10-16T05:41:05;7.70;;;4.40;;
49834;SDS011;35729;52.090;13.162;2022-10-16T05:43:41;6.63;;;4.13;;
49834;SDS011;35729;52.090;13.162;2022-10-16T05:46:16;4.15;;;2.83;;
49834;SDS011;35729;52.090;13.162;2022-10-16T05:48:44;2.95;;;2.28;;
49834;SDS011;35729;52.090;13.162;2022-10-16T05:51:14;12.65;;;7.85;;
49834;SDS011;35729;52.090;13.162;2022-10-16T05:53:45;6.32;;;4.93;;
49834;SDS011;35729;52.090;13.162;2022-10-16T05:56:14;2.80;;;2.28;;
49834;SDS011;35729;52.090;13.162;2022-10-16T05:58:42;6.57;;;4.75;;
49834;SDS011;35729;52.090;13.162;2022-10-16T06:01:12;6.15;;;3.88;;
49834;SDS011;35729;52.090;13.162;2022-10-16T06:03:42;3.30;;;3.00;;
49834;SDS011;35729;52.090;13.162;2022-10-16T06:06:11;3.28;;;2.97;;
49834;SDS011;35729;52.090;13.162;2022-10-16T06:08:42;5.72;;;3.80;;
49834;SDS011;35729;52.090;13.162;2022-10-16T06:11:14;2.83;;;2.53;;
49834;SDS011;35729;52.090;13.162;2022-10-16T06:13:44;2.60;;;2.40;;
49834;SDS011;35729;52.090;13.162;2022-10-16T06:16:12;2.67;;;2.00;;
49834;SDS011;35729;52.090;13.162;2022-10-16T06:18:41;2.10;;;1.90;;
49834;SDS011;35729;52.090;13.162;2022-10-16T06:21:09;1.67;;;1.58;;
49834;SDS011;35729;52.090;13.162;2022-10-16T06:23:39;2.33;;;1.77;;
49834;SDS011;35729;52.090;13.162;2022-10-16T06:26:11;1.95;;;1.73;;
49834;SDS011;35729;52.090;13.162;2022-10-16T06:28:41;2.03;;;1.63;;
49834;SDS011;35729;52.090;13.162;2022-10-16T06:31:10;2.22;;;2.00;;
49834;SDS011;35729;52.090;13.162;2022-10-16T06:33:40;2.63;;;1.50;;
49834;SDS011;35729;52.090;13.162;2022-10-16T06:36:11;2.05;;;1.40;;
49834;SDS011;35729;52.090;13.162;2022-10-16T06:38:41;1.65;;;1.55;;
49834;SDS011;35729;52.090;13.162;2022-10-16T06:41:13;3.72;;;1.77;;
49834;SDS011;35729;52.090;13.162;2022-10-16T06:43:43;2.30;;;1.20;;
49834;SDS011;35729;52.090;13.162;2022-10-16T06:46:12;1.67;;;1.42;;
49834;SDS011;35729;52.090;13.162;2022-10-16T06:48:42;3.70;;;1.48;;
49834;SDS011;35729;52.090;13.162;2022-10-16T06:51:11;1.98;;;1.70;;
49834;SDS011;35729;52.090;13.162;2022-10-16T06:53:42;2.70;;;1.38;;
49834;SDS011;35729;52.090;13.162;2022-10-16T06:56:15;1.98;;;1.70;;
49834;SDS011;35729;52.090;13.162;2022-10-16T06:58:45;2.95;;;1.70;;
49834;SDS011;35729;52.090;13.162;2022-10-16T07:01:14;4.50;;;1.92;;
49834;SDS011;35729;52.090;13.162;2022-10-16T07:03:44;3.65;;;2.45;;
49834;SDS011;35729;52.090;13.162;2022-10-16T07:06:14;6.05;;;1.73;;
49834;SDS011;35729;52.090;13.162;2022-10-16T07:08:44;3.13;;;1.50;;
49834;SDS011;35729;52.090;13.162;2022-10-16T07:11:17;4.35;;;2.22;;
49834;SDS011;35729;52.090;13.162;2022-10-16T07:13:47;3.53;;;1.63;;
49834;SDS011;35729;52.090;13.162;2022-10-16T07:16:17;5.82;;;3.42;;
49834;SDS011;35729;52.090;13.162;2022-10-16T07:18:47;2.30;;;2.10;;
49834;SDS011;35729;52.090;13.162;2022-10-16T07:21:17;3.47;;;1.70;;
49834;SDS011;35729;52.090;13.162;2022-10-16T07:23:49;2.60;;;1.50;;
49834;SDS011;35729;52.090;13.162;2022-10-16T07:26:21;4.57;;;2.10;;
49834;SDS011;35729;52.090;13.162;2022-10-16T07:28:50;2.80;;;1.90;;
49834;SDS011;35729;52.090;13.162;2022-10-16T07:31:19;3.53;;;2.30;;
49834;SDS011;35729;52.090;13.162;2022-10-16T07:33:48;3.92;;;1.90;;
49834;SDS011;35729;52.090;13.162;2022-10-16T07:36:17;3.38;;;2.03;;
49834;SDS011;35729;52.090;13.162;2022-10-16T07:38:46;4.05;;;1.55;;
49834;SDS011;35729;52.090;13.162;2022-10-16T07:41:16;2.58;;;1.40;;
49834;SDS011;35729;52.090;13.162;2022-10-16T07:43:49;4.30;;;1.40;;
49834;SDS011;35729;52.090;13.162;2022-10-16T07:46:19;2.40;;;1.25;;
49834;SDS011;35729;52.090;13.162;2022-10-16T07:48:50;6.95;;;3.45;;
49834;SDS011;35729;52.090;13.162;2022-10-16T07:51:19;1.80;;;1.60;;
49834;SDS011;35729;52.090;13.162;2022-10-16T07:53:48;6.10;;;1.60;;
49834;SDS011;35729;52.090;13.162;2022-10-16T07:56:18;1.60;;;1.50;;
49834;SDS011;35729;52.090;13.162;2022-10-16T07:58:51;1.85;;;1.10;;
49834;SDS011;35729;52.090;13.162;2022-10-16T08:01:21;1.63;;;1.53;;
49834;SDS011;35729;52.090;13.162;2022-10-16T08:03:50;1.38;;;1.10;;
49834;SDS011;35729;52.090;13.162;2022-10-16T08:06:19;1.27;;;0.95;;
49834;SDS011;35729;52.090;13.162;2022-10-16T08:08:49;1.85;;;1.10;;
49834;SDS011;35729;52.090;13.162;2022-10-16T08:11:18;1.25;;;1.15;;
49834;SDS011;35729;52.090;13.162;2022-10-16T08:13:51;1.92;;;0.90;;
49834;SDS011;35729;52.090;13.162;2022-10-16T08:16:19;1.70;;;1.30;;
49834;SDS011;35729;52.090;13.162;2022-10-16T08:18:48;3.78;;;2.05;;
49834;SDS011;35729;52.090;13.162;2022-10-16T08:21:18;2.95;;;0.80;;
49834;SDS011;35729;52.090;13.162;2022-10-16T08:23:48;2.25;;;0.70;;
49834;SDS011;35729;52.090;13.162;2022-10-16T08:26:16;2.85;;;0.95;;
49834;SDS011;35729;52.090;13.162;2022-10-16T08:28:45;1.45;;;1.00;;
49834;SDS011;35729;52.090;13.162;2022-10-16T08:31:16;1.23;;;1.13;;
49834;SDS011;35729;52.090;13.162;2022-10-16T08:33:45;3.10;;;1.20;;
49834;SDS011;35729;52.090;13.162;2022-10-16T08:36:14;4.15;;;1.23;;
49834;SDS011;35729;52.090;13.162;2022-10-16T08:38:44;1.38;;;1.20;;
49834;SDS011;35729;52.090;13.162;2022-10-16T08:41:21;2.00;;;0.90;;
49834;SDS011;35729;52.090;13.162;2022-10-16T08:47:00;1.52;;;0.95;;
49834;SDS011;35729;52.090;13.162;2022-10-16T08:49:33;1.17;;;0.90;;
49834;SDS011;35729;52.090;13.162;2022-10-16T08:52:03;1.25;;;1.00;;
49834;SDS011;35729;52.090;13.162;2022-10-16T08:54:34;1.58;;;0.90;;
49834;SDS011;35729;52.090;13.162;2022-10-16T08:57:07;0.85;;;0.70;;
49834;SDS011;35729;52.090;13.162;2022-10-16T08:59:39;4.75;;;0.93;;
49834;SDS011;35729;52.090;13.162;2022-10-16T09:02:19;1.13;;;0.80;;
49834;SDS011;35729;52.090;13.162;2022-10-16T09:05:10;2.33;;;1.08;;
49834;SDS011;35729;52.090;13.162;2022-10-16T09:07:53;2.20;;;1.08;;
49834;SDS011;35729;52.090;13.162;2022-10-16T09:10:32;1.05;;;0.57;;
49834;SDS011;35729;52.090;13.162;2022-10-16T09:13:14;2.08;;;0.82;;
49834;SDS011;35729;52.090;13.162;2022-10-16T09:15:51;1.25;;;0.60;;
49834;SDS011;35729;52.090;13.162;2022-10-16T09:18:28;1.13;;;0.60;;
49834;SDS011;35729;52.090;13.162;2022-10-16T09:21:04;2.38;;;0.90;;
49834;SDS011;35729;52.090;13.162;2022-10-16T09:23:40;1.85;;;1.00;;
49834;SDS011;35729;52.090;13.162;2022-10-16T09:26:09;2.65;;;0.73;;
49834;SDS011;35729;52.090;13.162;2022-10-16T09:28:40;0.95;;;0.73;;
49834;SDS011;35729;52.090;13.162;2022-10-16T09:31:12;1.33;;;0.85;;
49834;SDS011;35729;52.090;13.162;2022-10-16T09:33:47;0.75;;;0.65;;
49834;SDS011;35729;52.090;13.162;2022-10-16T09:36:18;2.03;;;0.68;;
49834;SDS011;35729;52.090;13.162;2022-10-16T09:38:48;0.90;;;0.63;;
49834;SDS011;35729;52.090;13.162;2022-10-16T09:41:19;2.55;;;0.68;;
49834;SDS011;35729;52.090;13.162;2022-10-16T09:43:52;1.60;;;0.70;;
49834;SDS011;35729;52.090;13.162;2022-10-16T09:46:27;2.10;;;0.80;;
49834;SDS011;35729;52.090;13.162;2022-10-16T09:49:00;0.80;;;0.60;;
49834;SDS011;35729;52.090;13.162;2022-10-16T09:51:34;2.63;;;1.00;;
49834;SDS011;35729;52.090;13.162;2022-10-16T09:54:12;3.20;;;1.60;;
49834;SDS011;35729;52.090;13.162;2022-10-16T09:56:42;1.88;;;0.73;;
49834;SDS011;35729;52.090;13.162;2022-10-16T09:59:15;1.70;;;0.70;;
49834;SDS011;35729;52.090;13.162;2022-10-16T10:01:45;0.90;;;0.65;;
49834;SDS011;35729;52.090;13.162;2022-10-16T10:04:40;11.00;;;0.90;;
49834;SDS011;35729;52.090;13.162;2022-10-16T10:07:20;3.38;;;0.88;;
49834;SDS011;35729;52.090;13.162;2022-10-16T10:09:53;2.20;;;0.80;;
49834;SDS011;35729;52.090;13.162;2022-10-16T10:12:24;1.75;;;0.65;;
49834;SDS011;35729;52.090;13.162;2022-10-16T10:14:56;1.67;;;0.75;;
49834;SDS011;35729;52.090;13.162;2022-10-16T10:17:26;2.13;;;0.90;;
49834;SDS011;35729;52.090;13.162;2022-10-16T10:19:59;1.02;;;0.60;;
49834;SDS011;35729;52.090;13.162;2022-10-16T10:22:41;1.52;;;0.70;;
49834;SDS011;35729;52.090;13.162;2022-10-16T10:25:23;1.15;;;0.70;;
49834;SDS011;35729;52.090;13.162;2022-10-16T10:28:07;2.45;;;0.70;;
49834;SDS011;35729;52.090;13.162;2022-10-16T10:30:55;2.45;;;0.60;;
49834;SDS011;35729;52.090;13.162;2022-10-16T10:33:30;1.48;;;0.68;;
49834;SDS011;35729;52.090;13.162;2022-10-16T10:36:12;2.17;;;0.50;;
49834;SDS011;35729;52.090;13.162;2022-10-16T10:38:48;2.47;;;0.60;;
49834;SDS011;35729;52.090;13.162;2022-10-16T10:44:33;1.73;;;0.55;;
49834;SDS011;35729;52.090;13.162;2022-10-16T10:47:22;2.92;;;1.38;;
49834;SDS011;35729;52.090;13.162;2022-10-16T10:50:06;1.63;;;0.70;;
49834;SDS011;35729;52.090;13.162;2022-10-16T10:52:48;1.33;;;0.50;;
49834;SDS011;35729;52.090;13.162;2022-10-16T10:55:27;0.98;;;0.80;;
49834;SDS011;35729;52.090;13.162;2022-10-16T10:58:15;3.20;;;0.60;;
49834;SDS011;35729;52.090;13.162;2022-10-16T11:00:57;0.75;;;0.60;;
49834;SDS011;35729;52.090;13.162;2022-10-16T11:03:35;0.50;;;0.50;;
49834;SDS011;35729;52.090;13.162;2022-10-16T11:06:15;0.82;;;0.40;;
49834;SDS011;35729;52.090;13.162;2022-10-16T11:08:53;1.88;;;0.73;;
49834;SDS011;35729;52.090;13.162;2022-10-16T11:11:25;1.42;;;0.70;;
49834;SDS011;35729;52.090;13.162;2022-10-16T11:14:00;1.23;;;0.40;;
49834;SDS011;35729;52.090;13.162;2022-10-16T11:16:34;2.05;;;0.50;;
49834;SDS011;35729;52.090;13.162;2022-10-16T11:19:10;1.27;;;0.68;;
49834;SDS011;35729;52.090;13.162;2022-10-16T11:21:43;2.15;;;0.70;;
49834;SDS011;35729;52.090;13.162;2022-10-16T11:24:22;1.52;;;0.70;;
49834;SDS011;35729;52.090;13.162;2022-10-16T11:26:57;1.48;;;0.50;;
49834;SDS011;35729;52.090;13.162;2022-10-16T11:29:32;2.92;;;0.50;;
49834;SDS011;35729;52.090;13.162;2022-10-16T11:32:05;0.95;;;0.80;;
49834;SDS011;35729;52.090;13.162;2022-10-16T11:34:44;0.85;;;0.68;;
49834;SDS011;35729;52.090;13.162;2022-10-16T11:39:50;0.50;;;0.40;;
49834;SDS011;35729;52.090;13.162;2022-10-16T11:42:22;1.00;;;0.60;;
49834;SDS011;35729;52.090;13.162;2022-10-16T11:45:00;2.13;;;0.50;;
49834;SDS011;35729;52.090;13.162;2022-10-16T11:47:36;2.30;;;0.85;;
49834;SDS011;35729;52.090;13.162;2022-10-16T11:50:13;1.90;;;0.50;;
49834;SDS011;35729;52.090;13.162;2022-10-16T11:52:52;1.17;;;0.40;;
49834;SDS011;35729;52.090;13.162;2022-10-16T11:55:28;1.08;;;0.63;;
49834;SDS011;35729;52.090;13.162;2022-10-16T11:58:03;0.63;;;0.43;;
49834;SDS011;35729;52.090;13.162;2022-10-16T12:00:37;0.45;;;0.43;;
49834;SDS011;35729;52.090;13.162;2022-10-16T12:03:11;2.03;;;0.60;;
49834;SDS011;35729;52.090;13.162;2022-10-16T12:05:54;0.43;;;0.35;;
49834;SDS011;35729;52.090;13.162;2022-10-16T12:08:29;1.90;;;0.60;;
49834;SDS011;35729;52.090;13.162;2022-10-16T12:11:08;1.50;;;0.50;;
49834;SDS011;35729;52.090;13.162;2022-10-16T12:13:50;1.17;;;0.60;;
49834;SDS011;35729;52.090;13.162;2022-10-16T12:16:22;2.70;;;0.63;;
49834;SDS011;35729;52.090;13.162;2022-10-16T12:19:02;1.02;;;0.50;;
49834;SDS011;35729;52.090;13.162;2022-10-16T12:21:38;1.15;;;0.50;;
49834;SDS011;35729;52.090;13.162;2022-10-16T12:24:18;0.90;;;0.75;;
49834;SDS011;35729;52.090;13.162;2022-10-16T12:26:52;2.10;;;0.50;;
49834;SDS011;35729;52.090;13.162;2022-10-16T12:29:23;3.35;;;0.57;;
49834;SDS011;35729;52.090;13.162;2022-10-16T12:32:00;0.55;;;0.43;;
49834;SDS011;35729;52.090;13.162;2022-10-16T12:34:34;0.90;;;0.40;;
49834;SDS011;35729;52.090;13.162;2022-10-16T12:37:11;0.50;;;0.30;;
49834;SDS011;35729;52.090;13.162;2022-10-16T12:39:42;3.97;;;0.60;;
49834;SDS011;35729;52.090;13.162;2022-10-16T12:42:30;0.57;;;0.35;;
49834;SDS011;35729;52.090;13.162;2022-10-16T12:45:01;0.73;;;0.30;;
49834;SDS011;35729;52.090;13.162;2022-10-16T12:47:47;0.73;;;0.40;;
49834;SDS011;35729;52.090;13.162;2022-10-16T12:50:26;0.68;;;0.30;;
49834;SDS011;35729;52.090;13.162;2022-10-16T12:53:01;3.35;;;0.60;;
49834;SDS011;35729;52.090;13.162;2022-10-16T12:55:33;1.85;;;0.50;;
49834;SDS011;35729;52.090;13.162;2022-10-16T12:58:20;1.02;;;0.20;;
49834;SDS011;35729;52.090;13.162;2022-10-16T13:01:03;0.50;;;0.30;;
49834;SDS011;35729;52.090;13.162;2022-10-16T13:03:51;1.45;;;0.80;;
49834;SDS011;35729;52.090;13.162;2022-10-16T13:06:33;1.55;;;0.82;;
49834;SDS011;35729;52.090;13.162;2022-10-16T13:12:12;3.33;;;1.58;;
49834;SDS011;35729;52.090;13.162;2022-10-16T13:15:00;1.42;;;0.40;;
49834;SDS011;35729;52.090;13.162;2022-10-16T13:17:39;1.75;;;0.55;;
49834;SDS011;35729;52.090;13.162;2022-10-16T13:20:16;1.40;;;0.30;;
49834;SDS011;35729;52.090;13.162;2022-10-16T13:22:54;0.75;;;0.22;;
49834;SDS011;35729;52.090;13.162;2022-10-16T13:25:33;1.25;;;0.40;;
49834;SDS011;35729;52.090;13.162;2022-10-16T13:28:11;0.82;;;0.20;;
49834;SDS011;35729;52.090;13.162;2022-10-16T13:30:44;0.40;;;0.30;;
49834;SDS011;35729;52.090;13.162;2022-10-16T13:33:20;0.80;;;0.17;;
49834;SDS011;35729;52.090;13.162;2022-10-16T13:35:54;0.68;;;0.30;;
49834;SDS011;35729;52.090;13.162;2022-10-16T13:38:25;3.22;;;0.40;;
49834;SDS011;35729;52.090;13.162;2022-10-16T13:40:56;0.73;;;0.20;;
49834;SDS011;35729;52.090;13.162;2022-10-16T13:43:26;0.20;;;0.13;;
49834;SDS011;35729;52.090;13.162;2022-10-16T13:46:03;0.20;;;0.20;;
49834;SDS011;35729;52.090;13.162;2022-10-16T13:48:33;1.75;;;0.30;;
49834;SDS011;35729;52.090;13.162;2022-10-16T13:51:03;0.15;;;0.10;;
49834;SDS011;35729;52.090;13.162;2022-10-16T13:53:34;1.67;;;0.10;;
49834;SDS011;35729;52.090;13.162;2022-10-16T13:56:04;1.60;;;0.30;;
49834;SDS011;35729;52.090;13.162;2022-10-16T13:58:34;0.70;;;0.20;;
49834;SDS011;35729;52.090;13.162;2022-10-16T14:01:11;1.55;;;0.20;;
49834;SDS011;35729;52.090;13.162;2022-10-16T14:03:44;0.68;;;0.13;;
49834;SDS011;35729;52.090;13.162;2022-10-16T14:06:14;0.30;;;0.20;;
49834;SDS011;35729;52.090;13.162;2022-10-16T14:08:48;0.70;;;0.17;;
49834;SDS011;35729;52.090;13.162;2022-10-16T14:11:21;1.20;;;0.20;;
49834;SDS011;35729;52.090;13.162;2022-10-16T14:13:51;0.30;;;0.20;;
49834;SDS011;35729;52.090;13.162;2022-10-16T14:16:23;1.98;;;0.40;;
49834;SDS011;35729;52.090;13.162;2022-10-16T14:18:57;1.50;;;0.30;;
49834;SDS011;35729;52.090;13.162;2022-10-16T14:21:27;2.65;;;0.30;;
49834;SDS011;35729;52.090;13.162;2022-10-16T14:23:57;0.40;;;0.20;;
49834;SDS011;35729;52.090;13.162;2022-10-16T14:26:26;0.63;;;0.20;;
49834;SDS011;35729;52.090;13.162;2022-10-16T14:29:03;0.50;;;0.32;;
49834;SDS011;35729;52.090;13.162;2022-10-16T14:31:42;0.70;;;0.50;;
49834;SDS011;35729;52.090;13.162;2022-10-16T14:36:58;0.28;;;0.22;;
49834;SDS011;35729;52.090;13.162;2022-10-16T14:39:32;1.77;;;0.60;;
49834;SDS011;35729;52.090;13.162;2022-10-16T14:42:01;0.63;;;0.40;;
49834;SDS011;35729;52.090;13.162;2022-10-16T14:44:31;1.30;;;0.73;;
49834;SDS011;35729;52.090;13.162;2022-10-16T14:47:12;0.60;;;0.40;;
49834;SDS011;35729;52.090;13.162;2022-10-16T14:49:47;0.73;;;0.20;;
49834;SDS011;35729;52.090;13.162;2022-10-16T14:52:16;2.47;;;0.47;;
49834;SDS011;35729;52.090;13.162;2022-10-16T14:54:48;0.60;;;0.43;;
49834;SDS011;35729;52.090;13.162;2022-10-16T14:57:20;3.55;;;1.10;;
49834;SDS011;35729;52.090;13.162;2022-10-16T14:59:51;2.95;;;2.17;;
49834;SDS011;35729;52.090;13.162;2022-10-16T15:02:25;2.25;;;1.15;;
49834;SDS011;35729;52.090;13.162;2022-10-16T15:04:56;1.10;;;0.60;;
49834;SDS011;35729;52.090;13.162;2022-10-16T15:07:25;1.17;;;0.57;;
49834;SDS011;35729;52.090;13.162;2022-10-16T15:09:54;2.38;;;1.00;;
49834;SDS011;35729;52.090;13.162;2022-10-16T15:12:23;4.15;;;2.05;;
49834;SDS011;35729;52.090;13.162;2022-10-16T15:14:52;5.80;;;3.33;;
49834;SDS011;35729;52.090;13.162;2022-10-16T15:17:20;4.40;;;2.53;;
49834;SDS011;35729;52.090;13.162;2022-10-16T15:19:51;4.68;;;2.53;;
49834;SDS011;35729;52.090;13.162;2022-10-16T15:22:20;2.92;;;1.58;;
49834;SDS011;35729;52.090;13.162;2022-10-16T15:24:48;3.55;;;2.05;;